ADDS METAR Data INFO
IDs: Format: Raw Decoded Include TAF

Data at: 0345 UTC 20 Feb 2018

KDLN 200253Z AUTO 10SM CLR M28/M28 A2981 RMK AO2 SLP245 T12781278 53010 $
KDLN 200153Z AUTO 13006KT 10SM CLR M28/M28 A2979 RMK AO2 SLP239 T12781278 $
KDLN 200053Z AUTO 12003KT 10SM FEW110 M22/M23 A2978 RMK AO2 SLP219 T12221233 $
KDLN 192353Z AUTO 11003KT 10SM CLR M21/M23 A2977 RMK AO2 SLP209 T12061228 11194 21217 53007 $
KDLN 192253Z AUTO 34003KT 10SM CLR M19/M22 A2976 RMK AO2 SLP202 T11941222 $
KDLN 192153Z AUTO 05004KT 10SM CLR M20/M22 A2975 RMK AO2 SLP197 T12001222 $
KDLN 192053Z AUTO 07004KT 10SM CLR M20/M22 A2975 RMK AO2 SLP198 T12001222 58009 $
KDLN 191953Z AUTO VRB03KT 10SM CLR M20/M22 A2976 RMK AO2 SLP200 T12001222 $
KDLN 191853Z AUTO 02006KT 10SM CLR M21/M23 A2977 RMK AO2 SLP203 T12111228 $
KDLN 191753Z AUTO 05011KT 10SM FEW016 M22/M23 A2978 RMK AO2 SLP207 60000 T12171233 11217 21250 51006 $
KDLN 191653Z AUTO 08007KT 10SM CLR M23/M24 A2977 RMK AO2 SLP207 T12331239 $
KDLN 191553Z AUTO 07008KT 10SM FEW011 M24/M24 A2976 RMK AO2 SNE1458 SLP203 P0000 T12391239 $
KDLN 191545Z AUTO 06008KT 10SM SCT018 M24/M24 A2976 RMK AO2 SNE1458 P0000 T12391244 $
KDLN 191453Z AUTO 06007KT 3SM -SN BR OVC026 M24/M24 A2976 RMK AO2 SNB1354 SLP201 P0000 60000 T12441244 53010 $
KDLN 191440Z AUTO 06009KT 2 1/2SM -SN BR OVC030 M24/M24 A2975 RMK AO2 SNB1354 P0000 T12441244 $
KDLN 191424Z AUTO 06010KT 1 3/4SM -SN BR OVC036 M24/M24 A2975 RMK AO2 SNB1354 P0000 T12441244 $
KDLN 191353Z AUTO 06009KT 9SM SCT060 OVC080 M24/M24 A2974 RMK AO2 SLP196 T12441244 $
KDLN 191253Z AUTO 06010KT 10SM FEW029 BKN040 BKN110 M24/M24 A2973 RMK AO2 SLP191 T12391239 $
KDLN 191219Z AUTO 07011KT 10SM SCT030 OVC039 M24/M24 A2973 RMK AO2 T12391239 $
KDLN 191153Z AUTO 06009KT 10SM OVC028 M23/M23 A2972 RMK AO2 SLP187 60000 70003 T12331233 11200 21239 52011 $
KDLN 191138Z AUTO 05009KT 10SM BKN028 BKN038 M23/M23 A2972 RMK AO2 T12331233 $
KDLN 191053Z AUTO 04013KT 10SM FEW039 M23/M24 A2971 RMK AO2 SLP179 T12331239 $
KDLN 190953Z AUTO 05013KT 10SM BKN120 M23/M23 A2970 RMK AO2 SLP173 T12281228 $
KDLN 190911Z AUTO 04016KT 10SM SCT024 BKN036 M23/M23 A2968 RMK AO2 T12281228 $
KDLN 190853Z AUTO 05013KT 7SM OVC025 M22/M22 A2968 RMK AO2 SLP167 60000 T12221222 53003 $
KDLN 190753Z AUTO 05012KT 4SM BR OVC029 M21/M21 A2968 RMK AO2 SNE35 SLP159 P0000 T12111211 $
KDLN 190733Z AUTO 04016KT 3SM -SN BR OVC029 M21/M21 A2967 RMK AO2 P0000 T12061206 $
KDLN 190719Z AUTO 04017KT 3SM -SN BR OVC031 M20/M21 A2967 RMK AO2 P0000 T12001206 $
KDLN 190653Z AUTO 04017KT 2SM -SN BR OVC023 M21/M21 A2967 RMK AO2 SLP155 P0000 T12061206 410331206 $
KDLN 190553Z AUTO 04018KT 1 3/4SM -SN BR OVC029 M20/M20 A2968 RMK AO2 SLP159 P0000 60000 T12001200 11178 21200 50006 $
KDLN 190536Z AUTO 04018KT 3SM -SN BR OVC042 M19/M19 A2968 RMK AO2 P0000 T11941194 $
KDLN 190514Z AUTO 03017KT 2 1/2SM -SN BR BKN030 OVC070 M19/M19 A2967 RMK AO2 P0000 T11941194 $
KDLN 190510Z AUTO 03018KT 3SM -SN BR OVC027 M19/M19 A2967 RMK AO2 P0000 T11941194 $
KDLN 190453Z AUTO 03016KT 5SM -SN BR OVC039 M19/M19 A2967 RMK AO2 SNE22B52 SLP154 P0000 T11941194 $
KDLN 190424Z AUTO 03015G24KT 6SM BR BKN045 OVC070 M19/M19 A2966 RMK AO2 SNE22 P0000 T11941194 $
KDLN 190410Z AUTO 03017KT 3SM -SN BR BKN025 OVC075 M19/M19 A2966 RMK AO2 P0000 T11941194 $
KDLN 190353Z AUTO 04016KT 2SM -SN BR OVC017 M19/M19 A2965 RMK AO2 SLP148 P0000 T11891189 $
KDLN 190342Z AUTO 03019KT 1 1/4SM -SN BR OVC015 M19/M19 A2965 RMK AO2 P0000 T11891189 $
KDLN 190334Z AUTO 04016KT 1SM -SN BR VV011 M19/M19 A2966 RMK AO2 P0000 T11891189 $
KDLN 190314Z AUTO 04018G24KT 3/4SM -SN BR VV011 M19/M19 A2965 RMK AO2 P0000 T11891189 $
KDLN 190304Z AUTO 03014G23KT 1SM -SN BR VV014 M18/M18 A2965 RMK AO2 P0000 T11831183 $
KDLN 190253Z AUTO 03018G22KT 1 1/2SM -SN BR OVC021 M18/M18 A2965 RMK AO2 SLP143 P0000 60000 T11831183 53010 $
KDLN 190232Z AUTO 03018KT 1 3/4SM -SN BR OVC025 M18/M18 A2965 RMK AO2 P0000 T11831183 $
KDLN 190221Z AUTO 04018KT 2SM -SN BR OVC023 M18/M18 A2965 RMK AO2 P0000 T11831183 $
KDLN 190213Z AUTO 04017G22KT 3SM -SN BR OVC027 M18/M18 A2965 RMK AO2 P0000 T11831183 $
KDLN 190153Z AUTO 02020G26KT 2SM -SN BR OVC023 M18/M18 A2963 RMK AO2 PK WND 04026/0054 SLP136 P0000 T11831183 $
KDLN 190141Z AUTO 03019G22KT 1 1/2SM -SN BR OVC021 M18/M18 A2964 RMK AO2 PK WND 04026/0054 P0000 T11831183 $
KDLN 190115Z AUTO 03018KT 2 1/2SM -SN BR OVC027 M18/M18 A2964 RMK AO2 PK WND 04026/0054 P0000 T11831183 $
KDLN 190053Z AUTO 04020G26KT 6SM -SN BR BKN037 OVC065 M18/M18 A2961 RMK AO2 PK WND 03027/0037 SNE15B50 SLP123 P0000 T11831183 $
KDLN 190021Z AUTO 04017KT 5SM BR FEW027 BKN080 OVC090 M18/M18 A2962 RMK AO2 PK WND 04026/0004 SNE15 P0000 T11781178 $
KDLN 190005Z AUTO 04022KT 3SM -SN BR BKN023 OVC080 M18/M18 A2961 RMK AO2 PK WND 04026/0004 P0000 T11781178 $
KDLN 182353Z AUTO 04019KT 1 1/4SM -SN BR OVC017 M18/M18 A2961 RMK AO2 PK WND 04030/2256 SNB22 SLP107 P0000 60000 T11781178 11156 21178 51009 $
KDLN 182350Z AUTO 04020KT 1SM -SN BR VV016 M18/M18 A2961 RMK AO2 PK WND 04030/2256 SNB22 P0000 $
KDLN 182332Z AUTO 04022G28KT 1/4SM SN FZFG BKN014 BKN026 OVC032 M17/M17 A2960 RMK AO2 PK WND 04030/2256 SNB22 P0000 T11721172 $
KDLN 182327Z AUTO 04019G27KT 1SM -SN BR BKN020 BKN026 OVC050 M17/M17 A2960 RMK AO2 PK WND 04030/2256 SNB22 P0000 T11671172 $
KDLN 182325Z AUTO 04022G27KT 2SM -SN BR BKN022 BKN032 OVC046 M17/M17 A2959 RMK AO2 PK WND 04030/2256 SNB22 P0000 T11671172 $
KDLN 182308Z AUTO 04020G29KT 10SM FEW026 BKN033 OVC055 M17/M18 A2959 RMK AO2 PK WND 04030/2256 T11721178 $
KDLN 182253Z AUTO 05019G27KT 6SM BR BKN022 BKN028 OVC033 M17/M17 A2959 RMK AO2 PK WND 05030/2218 SNE51 SLP094 P0000 T11721172 $
KDLN 182243Z AUTO 05023KT 3SM -SN BR BKN022 BKN028 OVC035 M17/M18 A2959 RMK AO2 PK WND 05030/2218 P0000 T11721178 $
KDLN 182156Z AUTO 04020G26KT 1 1/4SM -SN BR BKN016 BKN024 OVC032 M17/M17 A2958 RMK AO2 PK WND 04027/2154 P0000 T11671167 $
KDLN 182153Z AUTO 04022G26KT 3/4SM -SN BR BKN016 BKN022 OVC032 M17/M17 A2958 RMK AO2 PK WND 04029/2123 SLP087 P0000 T11671167 $
KDLN 182053Z AUTO 05022G27KT 1/2SM SN FZFG BKN014 BKN021 OVC028 M17/M17 A2956 RMK AO2 PK WND 05027/2052 SNB32 SLP081 P0000 60000 T11671167 58003 $
KDLN 182046Z AUTO 05018KT 3/4SM -SN BR SCT016 SCT021 OVC028 M17/M17 A2957 RMK AO2 PK WND 05026/2031 SNB32 P0000 T11671167 $
KDLN 182041Z AUTO 04019KT 1 3/4SM -SN BR FEW019 OVC028 M17/M17 A2957 RMK AO2 PK WND 05026/2031 SNB32 P0000 T11671167 $
KDLN 181953Z AUTO 05020KT 10SM FEW020 OVC026 M16/M17 A2957 RMK AO2 PK WND 04026/1941 SNB26E43 SLP079 P0000 T11611167 $
KDLN 181853Z AUTO 04018KT 10SM OVC022 M17/M17 A2958 RMK AO2 PK WND 04027/1756 SLP086 T11671172 $
KDLN 181753Z AUTO 05023G26KT 10SM OVC020 M17/M17 A2957 RMK AO2 PK WND 05029/1716 SNE1654 SLP082 P0000 60003 T11671167 11067 21172 51021 $
KDLN 181717Z AUTO 05022G29KT 4SM BR FEW017 BKN023 OVC034 M17/M17 A2955 RMK AO2 PK WND 05029/1716 SNE1654 P0000 T11721172 $
KDLN 181704Z AUTO 06019G26KT 2SM BR SCT010 BKN015 OVC023 M17/M17 A2955 RMK AO2 PK WND 05026/1702 SNE1654 P0000 T11671167 $
KDLN 181653Z AUTO 05017G24KT 1 3/4SM -SN BR BKN010 BKN015 OVC021 M17/M17 A2955 RMK AO2 SLP073 P0000 T11671167 $
KDLN 181637Z AUTO 05017G21KT 1 1/4SM -SN BR BKN010 OVC016 M17/M17 A2954 RMK AO2 P0000 T11671167 $
KDLN 181609Z AUTO 06012KT 1/2SM -SN FZFG VV011 M17/M17 A2954 RMK AO2 P0000 T11721172 $
KDLN 181553Z AUTO 06012KT 1/4SM SN FZFG VV007 M17/M17 A2953 RMK AO2 SLP055 P0002 T11671167 $